Time;durP1;ratioP1;P1;durP2;ratioP2;P2;SDS_P1;SDS_P2;PMS_P1;PMS_P2;Temp;Humidity;BMP_temperature;BMP_pressure;BME280_temperature;BME280_humidity;BME280_pressure;Samples;Min_cycle;Max_cycle;Signal;HPM_P1;HPM_P2
2021/01/27 00:01:05;;;;;;;9.00;5.60;;;0.90;99.90;;;;;;484794;245;27481;-71
2021/01/27 00:03:06;;;;;;;7.90;5.75;;;0.90;99.90;;;;;;484832;245;27430;-69
2021/01/27 00:05:07;;;;;;;9.38;6.10;;;1.00;99.90;;;;;;484836;245;27926;-70
2021/01/27 00:07:09;;;;;;;10.93;5.87;;;1.00;99.90;;;;;;484803;245;28055;-69
2021/01/27 00:09:10;;;;;;;11.55;5.72;;;1.00;99.90;;;;;;484761;245;28040;-70
2021/01/27 00:11:11;;;;;;;7.43;5.57;;;1.00;99.90;;;;;;484703;245;27440;-70
2021/01/27 00:13:12;;;;;;;8.05;5.78;;;1.00;99.90;;;;;;484801;245;27415;-69
2021/01/27 00:15:14;;;;;;;8.30;5.62;;;0.90;99.90;;;;;;484617;245;27565;-70
2021/01/27 00:17:15;;;;;;;5.93;5.32;;;0.90;99.90;;;;;;484784;245;27503;-70
2021/01/27 00:19:16;;;;;;;11.32;6.95;;;0.90;99.90;;;;;;484660;245;27510;-69
2021/01/27 00:21:17;;;;;;;9.98;5.32;;;0.90;99.90;;;;;;484704;245;27534;-70
2021/01/27 00:23:19;;;;;;;13.65;5.80;;;0.90;99.90;;;;;;484727;245;27455;-69
2021/01/27 00:25:20;;;;;;;10.85;6.32;;;0.90;99.90;;;;;;484798;245;27954;-71
2021/01/27 00:27:21;;;;;;;14.98;7.32;;;0.80;99.90;;;;;;484800;245;27408;-69
2021/01/27 00:29:22;;;;;;;11.60;6.87;;;0.80;99.90;;;;;;484807;245;27994;-70
2021/01/27 00:31:24;;;;;;;15.80;8.32;;;0.80;99.90;;;;;;484769;245;27906;-71
2021/01/27 00:33:25;;;;;;;11.00;6.90;;;0.70;99.90;;;;;;484818;245;28042;-69
2021/01/27 00:35:26;;;;;;;12.63;7.05;;;0.70;99.90;;;;;;484874;245;27435;-69
2021/01/27 00:37:27;;;;;;;12.23;7.45;;;0.70;99.90;;;;;;484876;245;27439;-71
2021/01/27 00:39:29;;;;;;;12.20;7.22;;;0.60;99.90;;;;;;484804;245;27527;-70
2021/01/27 00:41:30;;;;;;;10.25;6.12;;;0.60;99.90;;;;;;484681;245;27610;-70
2021/01/27 00:43:31;;;;;;;9.07;6.25;;;0.50;99.90;;;;;;484735;245;27542;-70
2021/01/27 00:45:32;;;;;;;8.45;6.32;;;0.50;99.90;;;;;;484745;245;27439;-69
2021/01/27 00:47:34;;;;;;;9.60;6.57;;;0.50;99.90;;;;;;484740;245;27518;-70
2021/01/27 00:49:35;;;;;;;10.40;6.72;;;0.50;99.90;;;;;;484719;245;28167;-70
2021/01/27 00:51:36;;;;;;;11.10;6.35;;;0.50;99.90;;;;;;484706;245;28026;-70
2021/01/27 00:53:37;;;;;;;11.63;7.50;;;0.50;99.90;;;;;;484727;245;27938;-69
2021/01/27 00:55:39;;;;;;;11.05;6.68;;;0.50;99.90;;;;;;484776;245;27479;-69
2021/01/27 00:57:40;;;;;;;11.75;6.60;;;0.50;99.90;;;;;;484751;245;27445;-70
2021/01/27 00:59:41;;;;;;;9.52;6.57;;;0.50;99.90;;;;;;484776;245;27550;-71
2021/01/27 01:01:42;;;;;;;8.43;6.95;;;0.50;99.90;;;;;;484712;245;27545;-69
2021/01/27 01:03:44;;;;;;;10.70;6.12;;;0.50;99.90;;;;;;484789;245;27868;-70
2021/01/27 01:05:45;;;;;;;12.85;7.22;;;0.50;99.90;;;;;;484851;245;27507;-69
2021/01/27 01:07:46;;;;;;;10.10;6.10;;;0.50;99.90;;;;;;484884;245;27551;-69
2021/01/27 01:09:47;;;;;;;10.57;6.62;;;0.50;99.90;;;;;;484788;245;27423;-71
2021/01/27 01:11:49;;;;;;;13.15;7.15;;;0.50;99.90;;;;;;484700;244;27912;-69
2021/01/27 01:13:50;;;;;;;12.15;7.20;;;0.50;99.90;;;;;;484808;245;28009;-70
2021/01/27 01:15:51;;;;;;;12.68;7.85;;;0.50;99.90;;;;;;484787;245;28094;-70
2021/01/27 01:17:52;;;;;;;9.25;6.35;;;0.50;99.90;;;;;;484813;245;27431;-70
2021/01/27 01:19:54;;;;;;;10.23;6.75;;;0.50;99.90;;;;;;484846;245;27647;-70
2021/01/27 01:21:55;;;;;;;9.40;6.10;;;0.50;99.90;;;;;;484863;245;27511;-69
2021/01/27 01:23:56;;;;;;;9.25;6.57;;;0.60;99.90;;;;;;484873;245;27430;-71
2021/01/27 01:25:57;;;;;;;9.40;6.20;;;0.50;99.90;;;;;;484811;245;27590;-69
2021/01/27 01:27:59;;;;;;;13.43;7.55;;;0.50;99.90;;;;;;484735;245;27542;-69
2021/01/27 01:30:00;;;;;;;11.93;6.68;;;0.50;99.90;;;;;;484657;245;27465;-70
2021/01/27 01:32:01;;;;;;;12.80;7.22;;;0.60;99.90;;;;;;484581;245;27516;-70
2021/01/27 01:34:02;;;;;;;13.95;6.80;;;0.60;99.90;;;;;;484728;245;28030;-71
2021/01/27 01:36:04;;;;;;;12.45;6.85;;;0.60;99.90;;;;;;484710;245;27944;-69
2021/01/27 01:38:05;;;;;;;10.15;7.18;;;0.60;99.90;;;;;;484698;245;27997;-69
2021/01/27 01:40:06;;;;;;;14.95;6.25;;;0.60;99.90;;;;;;484662;245;27458;-71
2021/01/27 01:42:08;;;;;;;15.30;7.47;;;0.60;99.90;;;;;;484692;245;27522;-69
2021/01/27 01:44:09;;;;;;;11.18;6.30;;;0.60;99.90;;;;;;484734;245;27643;-69
2021/01/27 01:46:10;;;;;;;11.35;7.37;;;0.60;99.90;;;;;;484753;245;27474;-69
2021/01/27 01:48:11;;;;;;;11.27;6.95;;;0.50;99.90;;;;;;484806;244;27918;-72
2021/01/27 01:50:13;;;;;;;8.95;6.62;;;0.50;99.90;;;;;;484709;245;27454;-70
2021/01/27 01:52:14;;;;;;;11.25;6.78;;;0.50;99.90;;;;;;484737;245;27461;-69
2021/01/27 01:54:15;;;;;;;9.32;6.82;;;0.50;99.90;;;;;;484761;245;27574;-70
2021/01/27 01:56:16;;;;;;;15.10;6.80;;;0.50;99.90;;;;;;484809;245;27954;-69
2021/01/27 01:58:18;;;;;;;12.95;7.18;;;0.50;99.90;;;;;;484769;245;27949;-70
2021/01/27 02:00:19;;;;;;;13.80;7.47;;;0.60;99.90;;;;;;484750;245;27462;-69
2021/01/27 02:02:20;;;;;;;10.32;7.15;;;0.60;99.90;;;;;;484766;245;27673;-70
2021/01/27 02:04:21;;;;;;;10.40;6.20;;;0.60;99.90;;;;;;484798;245;27581;-69
2021/01/27 02:06:23;;;;;;;8.10;6.55;;;0.60;99.90;;;;;;484806;245;27541;-70
2021/01/27 02:08:24;;;;;;;11.25;7.35;;;0.70;99.90;;;;;;484846;245;27523;-69
2021/01/27 02:10:25;;;;;;;9.95;6.70;;;0.70;99.90;;;;;;484857;245;27610;-69
2021/01/27 02:12:26;;;;;;;10.38;6.35;;;0.70;99.90;;;;;;484899;245;27519;-69
2021/01/27 02:14:28;;;;;;;9.38;6.80;;;0.70;99.90;;;;;;484885;245;27544;-71
2021/01/27 02:16:29;;;;;;;15.77;7.32;;;0.70;99.90;;;;;;484906;245;27900;-70
2021/01/27 02:18:30;;;;;;;12.95;7.25;;;0.80;99.90;;;;;;484681;245;28184;-70
2021/01/27 02:20:31;;;;;;;11.75;7.12;;;0.80;99.90;;;;;;484731;245;28019;-70
2021/01/27 02:22:33;;;;;;;10.52;7.00;;;0.80;99.90;;;;;;484744;245;28101;-69
2021/01/27 02:24:34;;;;;;;14.93;8.02;;;0.80;99.90;;;;;;484731;245;27446;-69
2021/01/27 02:26:35;;;;;;;10.05;6.75;;;0.80;99.90;;;;;;484785;245;27574;-69
2021/01/27 02:28:36;;;;;;;9.60;6.78;;;0.90;99.90;;;;;;484767;245;27430;-70
2021/01/27 02:30:38;;;;;;;8.48;6.80;;;0.90;99.90;;;;;;484718;245;27451;-70
2021/01/27 02:32:39;;;;;;;10.75;5.95;;;0.90;99.90;;;;;;484788;245;27887;-71
2021/01/27 02:34:40;;;;;;;12.32;7.87;;;0.90;99.90;;;;;;484793;244;27542;-69
2021/01/27 02:36:41;;;;;;;10.38;6.65;;;0.90;99.90;;;;;;484760;245;27570;-70
2021/01/27 02:38:43;;;;;;;12.60;7.32;;;0.90;99.90;;;;;;484742;245;28014;-70
2021/01/27 02:40:44;;;;;;;12.13;7.28;;;0.90;99.90;;;;;;484783;245;28034;-70
2021/01/27 02:42:45;;;;;;;10.07;6.60;;;1.00;99.90;;;;;;484891;245;28044;-71
2021/01/27 02:44:46;;;;;;;12.48;6.90;;;1.00;99.90;;;;;;484827;245;27542;-69
2021/01/27 02:46:48;;;;;;;12.77;7.15;;;1.00;99.90;;;;;;484714;245;27443;-70
2021/01/27 02:48:49;;;;;;;11.12;7.12;;;1.00;99.90;;;;;;484792;245;27439;-70
2021/01/27 02:50:50;;;;;;;11.60;7.28;;;1.00;99.90;;;;;;484754;245;27525;-69
2021/01/27 02:52:51;;;;;;;14.35;7.35;;;1.00;99.90;;;;;;484796;245;27600;-69
2021/01/27 02:54:53;;;;;;;17.42;7.05;;;1.10;99.90;;;;;;484852;245;27482;-69
2021/01/27 02:56:54;;;;;;;10.60;6.20;;;1.10;99.90;;;;;;484884;245;27546;-69
2021/01/27 02:58:55;;;;;;;10.52;6.93;;;1.10;99.90;;;;;;484925;245;27951;-71
2021/01/27 03:00:56;;;;;;;11.00;6.50;;;1.10;99.90;;;;;;484914;245;27963;-69
2021/01/27 03:02:58;;;;;;;11.15;7.10;;;1.10;99.90;;;;;;484973;245;28139;-70
2021/01/27 03:04:59;;;;;;;10.10;6.35;;;1.10;99.90;;;;;;484845;245;27556;-69
2021/01/27 03:07:00;;;;;;;8.45;6.50;;;1.20;99.90;;;;;;484801;245;27450;-70
2021/01/27 03:09:01;;;;;;;11.20;6.37;;;1.20;99.90;;;;;;484782;245;27437;-71
2021/01/27 03:11:03;;;;;;;9.27;6.25;;;1.20;99.90;;;;;;484767;245;27415;-69
2021/01/27 03:13:04;;;;;;;12.45;6.80;;;1.10;99.90;;;;;;484797;245;27538;-71
2021/01/27 03:15:05;;;;;;;10.30;6.60;;;1.20;99.90;;;;;;484831;245;27418;-69
2021/01/27 03:17:06;;;;;;;14.00;6.87;;;1.20;99.90;;;;;;484779;245;27446;-69
2021/01/27 03:19:08;;;;;;;10.15;6.70;;;1.20;99.90;;;;;;484666;245;27612;-71
2021/01/27 03:21:09;;;;;;;12.25;6.32;;;1.30;99.90;;;;;;484730;245;27863;-70
2021/01/27 03:23:11;;;;;;;10.50;6.10;;;1.30;99.90;;;;;;484817;245;29026;-70
2021/01/27 03:25:11;;;;;;;10.07;6.20;;;1.30;99.90;;;;;;484791;245;27442;-69
2021/01/27 03:27:13;;;;;;;12.15;6.65;;;1.30;99.90;;;;;;484786;245;27447;-70
2021/01/27 03:29:14;;;;;;;10.90;6.53;;;1.30;99.90;;;;;;484790;245;27553;-69
2021/01/27 03:31:15;;;;;;;11.15;6.80;;;1.30;99.90;;;;;;484734;245;27435;-69
2021/01/27 03:33:16;;;;;;;11.27;6.93;;;1.40;99.90;;;;;;484796;245;27451;-70
2021/01/27 03:35:18;;;;;;;12.23;6.32;;;1.40;99.90;;;;;;484787;245;27546;-70
2021/01/27 03:37:19;;;;;;;14.15;6.72;;;1.40;99.90;;;;;;484787;245;27459;-70
2021/01/27 03:39:20;;;;;;;12.35;6.90;;;1.40;99.90;;;;;;484820;245;27465;-70
2021/01/27 03:41:21;;;;;;;11.85;6.20;;;1.40;99.90;;;;;;484832;245;27965;-70
2021/01/27 03:43:23;;;;;;;11.60;6.40;;;1.40;99.90;;;;;;484824;245;27966;-69
2021/01/27 03:45:24;;;;;;;9.80;5.85;;;1.40;99.90;;;;;;484877;245;27539;-70
2021/01/27 03:47:25;;;;;;;9.40;6.00;;;1.50;99.90;;;;;;484807;245;27522;-71
2021/01/27 03:49:26;;;;;;;11.25;6.43;;;1.50;99.90;;;;;;484658;245;27544;-70
2021/01/27 03:51:28;;;;;;;10.93;6.18;;;1.50;99.90;;;;;;484659;245;27542;-70
2021/01/27 03:53:30;;;;;;;11.05;6.30;;;1.40;99.90;;;;;;484706;245;27538;-69
2021/01/27 03:55:30;;;;;;;11.18;6.62;;;1.30;99.90;;;;;;484731;245;27638;-70
2021/01/27 03:57:31;;;;;;;11.43;6.50;;;1.30;99.90;;;;;;484750;245;27656;-71
2021/01/27 03:59:33;;;;;;;14.73;7.22;;;1.30;99.90;;;;;;484729;245;27458;-69
2021/01/27 04:01:34;;;;;;;13.38;7.20;;;1.30;99.90;;;;;;484741;245;28063;-70
2021/01/27 04:03:35;;;;;;;12.35;7.75;;;1.30;99.90;;;;;;484778;245;28150;-69
2021/01/27 04:05:36;;;;;;;10.68;7.75;;;1.30;99.90;;;;;;484756;245;27925;-70
2021/01/27 04:07:38;;;;;;;11.32;6.85;;;1.30;99.90;;;;;;484779;245;27638;-70
2021/01/27 04:09:39;;;;;;;12.18;7.30;;;1.20;99.90;;;;;;484781;245;27446;-70
2021/01/27 04:11:40;;;;;;;14.68;7.82;;;1.20;99.90;;;;;;484757;245;27544;-70
2021/01/27 04:13:41;;;;;;;13.07;7.60;;;1.20;99.90;;;;;;484765;245;27450;-69
2021/01/27 04:15:43;;;;;;;15.25;8.00;;;1.20;99.90;;;;;;484809;245;27551;-70
2021/01/27 04:17:44;;;;;;;15.88;7.80;;;1.30;99.90;;;;;;484773;245;27447;-71
2021/01/27 04:19:45;;;;;;;14.02;10.05;;;1.20;99.90;;;;;;484834;245;27450;-69
2021/01/27 04:21:47;;;;;;;13.23;8.10;;;1.30;99.90;;;;;;484851;245;27501;-69
2021/01/27 04:23:49;;;;;;;12.07;7.62;;;1.30;99.90;;;;;;484719;245;27531;-69
2021/01/27 04:25:50;;;;;;;15.98;9.40;;;1.20;99.90;;;;;;484768;245;27477;-71
2021/01/27 04:27:51;;;;;;;14.43;7.37;;;1.30;99.90;;;;;;484845;245;27442;-70
2021/01/27 04:29:52;;;;;;;16.23;7.10;;;1.30;99.90;;;;;;484909;245;27897;-71
2021/01/27 04:31:54;;;;;;;15.40;7.85;;;1.20;99.90;;;;;;484889;241;27969;-69
2021/01/27 04:33:55;;;;;;;13.07;7.25;;;1.20;99.90;;;;;;484910;245;28033;-69
2021/01/27 04:35:56;;;;;;;13.00;7.65;;;1.30;99.90;;;;;;484919;245;27515;-69
2021/01/27 04:37:58;;;;;;;13.13;7.62;;;1.30;99.90;;;;;;484895;245;27498;-69
2021/01/27 04:39:59;;;;;;;13.13;6.85;;;1.30;99.90;;;;;;484834;245;27473;-72
2021/01/27 04:42:00;;;;;;;12.55;6.70;;;1.40;99.90;;;;;;484761;245;27546;-69
2021/01/27 04:44:01;;;;;;;14.93;7.45;;;1.30;99.90;;;;;;484758;245;27487;-69
2021/01/27 04:46:03;;;;;;;9.65;6.78;;;1.30;99.90;;;;;;484739;245;27454;-71
2021/01/27 04:48:04;;;;;;;12.10;7.03;;;1.30;99.90;;;;;;484721;245;27438;-69
2021/01/27 04:50:05;;;;;;;18.98;6.78;;;1.30;99.90;;;;;;484597;245;27942;-70
2021/01/27 04:52:06;;;;;;;12.55;7.12;;;1.40;99.90;;;;;;484664;245;27942;-70
2021/01/27 04:54:08;;;;;;;12.10;6.47;;;1.40;99.90;;;;;;484656;245;27930;-69
2021/01/27 04:56:09;;;;;;;12.32;7.30;;;1.30;99.90;;;;;;484649;244;27463;-71
2021/01/27 04:58:10;;;;;;;8.18;5.85;;;1.40;99.90;;;;;;484652;245;27481;-69
2021/01/27 05:00:11;;;;;;;10.18;6.30;;;1.30;99.90;;;;;;484591;245;27474;-70
2021/01/27 05:02:13;;;;;;;11.02;7.22;;;1.30;99.90;;;;;;484708;244;27462;-69
2021/01/27 05:04:14;;;;;;;12.52;6.78;;;1.30;99.90;;;;;;484748;245;27450;-70
2021/01/27 05:06:15;;;;;;;10.70;6.07;;;1.30;99.90;;;;;;484745;245;27537;-70
2021/01/27 05:08:16;;;;;;;9.45;6.10;;;1.30;99.90;;;;;;484734;245;27633;-70
2021/01/27 05:10:18;;;;;;;10.38;5.72;;;1.30;99.90;;;;;;484749;245;27546;-71
2021/01/27 05:12:19;;;;;;;13.15;5.90;;;1.30;99.90;;;;;;484764;245;28018;-70
2021/01/27 05:14:20;;;;;;;9.27;6.15;;;1.30;99.90;;;;;;484882;245;28056;-69
2021/01/27 05:16:21;;;;;;;10.77;6.80;;;1.20;99.90;;;;;;484882;245;28025;-70
2021/01/27 05:18:23;;;;;;;11.38;6.25;;;1.30;99.90;;;;;;484841;245;27455;-70
2021/01/27 05:20:24;;;;;;;11.43;6.22;;;1.30;99.90;;;;;;484855;245;27478;-69
2021/01/27 05:22:25;;;;;;;15.05;7.12;;;1.30;99.90;;;;;;484707;245;27423;-71
2021/01/27 05:24:26;;;;;;;13.32;7.47;;;1.30;99.90;;;;;;484814;245;27517;-71
2021/01/27 05:26:28;;;;;;;8.57;6.15;;;1.30;99.90;;;;;;484811;245;27551;-69
2021/01/27 05:28:29;;;;;;;12.93;6.40;;;1.40;99.90;;;;;;484758;245;27573;-70
2021/01/27 05:30:30;;;;;;;11.50;6.45;;;1.30;99.90;;;;;;484739;245;27566;-70
2021/01/27 05:32:31;;;;;;;9.45;6.50;;;1.30;99.90;;;;;;484761;245;28017;-69
2021/01/27 05:34:35;;;;;;;12.82;6.70;;;1.40;99.90;;;;;;484754;245;28023;-70
2021/01/27 05:36:34;;;;;;;12.10;6.47;;;1.30;99.90;;;;;;484583;245;27952;-70
2021/01/27 05:38:35;;;;;;;12.88;6.25;;;1.40;99.90;;;;;;484804;245;27566;-70
2021/01/27 05:40:36;;;;;;;10.50;6.05;;;1.40;99.90;;;;;;484738;245;27388;-69
2021/01/27 05:42:38;;;;;;;6.57;5.03;;;1.30;99.90;;;;;;484749;245;27453;-70
2021/01/27 05:44:39;;;;;;;10.32;5.80;;;1.40;99.90;;;;;;484858;245;27531;-69
2021/01/27 05:46:40;;;;;;;8.85;5.20;;;1.30;99.90;;;;;;484909;245;27446;-69
2021/01/27 05:48:41;;;;;;;9.55;5.85;;;1.30;99.90;;;;;;484791;245;27539;-70
2021/01/27 05:50:43;;;;;;;9.52;5.90;;;1.30;99.90;;;;;;484730;245;27522;-69
2021/01/27 05:52:44;;;;;;;8.85;5.50;;;1.40;99.90;;;;;;484762;245;27661;-69
2021/01/27 05:54:45;;;;;;;10.27;6.37;;;1.40;99.90;;;;;;484771;245;27502;-70
2021/01/27 05:56:46;;;;;;;11.38;5.95;;;1.40;99.90;;;;;;484808;245;27986;-69
2021/01/27 05:58:48;;;;;;;9.77;5.80;;;1.30;99.90;;;;;;484819;245;28021;-70
2021/01/27 06:00:49;;;;;;;7.32;4.87;;;1.30;99.90;;;;;;484783;245;27961;-69
2021/01/27 06:02:50;;;;;;;7.57;4.90;;;1.30;99.90;;;;;;484859;245;27457;-70
2021/01/27 06:04:51;;;;;;;11.23;5.80;;;1.30;99.90;;;;;;484905;245;27558;-71
2021/01/27 06:06:53;;;;;;;7.22;5.45;;;1.40;99.90;;;;;;484954;245;27514;-69
2021/01/27 06:08:54;;;;;;;10.25;6.18;;;1.40;99.90;;;;;;484958;245;27452;-70
2021/01/27 06:10:55;;;;;;;16.42;14.73;;;1.40;99.90;;;;;;484907;245;27403;-69
2021/01/27 06:12:56;;;;;;;9.05;6.55;;;1.20;99.90;;;;;;485000;245;27568;-69
2021/01/27 06:14:58;;;;;;;7.15;6.05;;;1.20;99.90;;;;;;484997;245;27858;-72
2021/01/27 06:16:59;;;;;;;7.37;5.82;;;1.30;99.90;;;;;;484962;245;28057;-69
2021/01/27 06:19:00;;;;;;;8.40;5.55;;;1.30;99.90;;;;;;484913;245;27922;-69
2021/01/27 06:21:01;;;;;;;8.13;6.00;;;1.30;99.90;;;;;;484840;245;29880;-69
2021/01/27 06:23:03;;;;;;;7.50;5.43;;;1.30;99.90;;;;;;484869;245;28993;-69
2021/01/27 06:25:04;;;;;;;6.90;5.15;;;1.30;99.90;;;;;;484857;245;27558;-71
2021/01/27 06:27:05;;;;;;;9.48;5.65;;;1.20;99.90;;;;;;484807;245;27506;-69
2021/01/27 06:29:06;;;;;;;6.72;5.40;;;1.30;99.90;;;;;;484801;245;27566;-70
2021/01/27 06:31:08;;;;;;;8.23;5.00;;;1.30;99.90;;;;;;484758;245;27520;-69
2021/01/27 06:33:09;;;;;;;6.12;4.78;;;1.30;99.90;;;;;;484763;245;27605;-70
2021/01/27 06:35:10;;;;;;;9.55;5.07;;;1.30;99.90;;;;;;484771;245;27454;-69
2021/01/27 06:37:11;;;;;;;5.90;4.70;;;1.30;99.90;;;;;;484787;245;27542;-71
2021/01/27 06:39:13;;;;;;;8.30;5.70;;;1.30;99.90;;;;;;484791;245;27546;-70
2021/01/27 06:41:14;;;;;;;6.87;4.90;;;1.40;99.90;;;;;;484750;245;27537;-71
2021/01/27 06:43:15;;;;;;;10.45;5.25;;;1.30;99.90;;;;;;484798;245;27486;-70
2021/01/27 06:45:16;;;;;;;7.18;5.72;;;1.30;99.90;;;;;;484834;245;27510;-69
2021/01/27 06:47:18;;;;;;;7.93;5.28;;;1.40;99.90;;;;;;484894;245;27407;-70
2021/01/27 06:49:19;;;;;;;8.82;5.22;;;1.40;99.90;;;;;;484904;245;27534;-70
2021/01/27 06:51:20;;;;;;;9.23;5.18;;;1.40;99.90;;;;;;484830;245;28129;-70
2021/01/27 06:53:21;;;;;;;6.18;4.93;;;1.40;99.90;;;;;;484864;245;28082;-70
2021/01/27 06:55:23;;;;;;;4.70;4.30;;;1.40;99.90;;;;;;484881;245;27858;-69
2021/01/27 06:57:24;;;;;;;8.68;4.62;;;1.40;99.90;;;;;;484826;245;27949;-69
2021/01/27 06:59:25;;;;;;;5.90;4.28;;;1.40;99.90;;;;;;484806;245;27563;-70
2021/01/27 07:01:26;;;;;;;5.40;4.32;;;1.30;99.90;;;;;;484711;245;27550;-70
2021/01/27 07:03:28;;;;;;;5.05;4.55;;;1.30;99.90;;;;;;484757;245;27435;-70
2021/01/27 07:05:29;;;;;;;6.07;4.40;;;1.40;99.90;;;;;;484769;245;27666;-69
2021/01/27 07:07:30;;;;;;;4.47;3.95;;;1.30;99.90;;;;;;484806;245;27801;-70
2021/01/27 07:09:31;;;;;;;5.25;3.80;;;1.30;99.90;;;;;;484805;245;27539;-70
2021/01/27 07:11:33;;;;;;;4.68;4.15;;;1.30;99.90;;;;;;484802;245;27719;-70
2021/01/27 07:13:34;;;;;;;5.07;3.60;;;1.30;99.90;;;;;;484783;245;27454;-70
2021/01/27 07:15:35;;;;;;;4.28;3.50;;;1.30;99.90;;;;;;484784;245;27513;-69
2021/01/27 07:17:37;;;;;;;3.95;3.33;;;1.30;99.90;;;;;;484788;245;27566;-70
2021/01/27 07:19:38;;;;;;;6.32;3.92;;;1.40;99.90;;;;;;484772;245;28022;-70
2021/01/27 07:21:39;;;;;;;4.82;3.72;;;1.30;99.90;;;;;;484704;245;27451;-70
2021/01/27 07:23:40;;;;;;;4.70;4.03;;;1.30;99.90;;;;;;484754;245;27469;-69
2021/01/27 07:25:42;;;;;;;5.47;3.80;;;1.40;99.90;;;;;;484759;245;27402;-69
2021/01/27 07:27:43;;;;;;;4.70;3.97;;;1.40;99.90;;;;;;484753;245;27450;-69
2021/01/27 07:29:44;;;;;;;5.07;3.50;;;1.40;99.90;;;;;;484781;245;27530;-70
2021/01/27 07:31:45;;;;;;;3.62;3.30;;;1.30;99.90;;;;;;484683;245;27470;-69
2021/01/27 07:33:47;;;;;;;4.97;3.40;;;1.30;99.90;;;;;;484852;245;27618;-70
2021/01/27 07:35:48;;;;;;;4.95;3.25;;;1.30;99.90;;;;;;484814;245;27594;-70
2021/01/27 07:37:50;;;;;;;5.90;3.17;;;1.30;99.90;;;;;;484803;245;28024;-70
2021/01/27 07:39:50;;;;;;;3.30;3.00;;;1.30;99.90;;;;;;484810;245;27992;-70
2021/01/27 07:41:52;;;;;;;4.10;3.08;;;1.30;99.90;;;;;;484822;245;27451;-69
2021/01/27 07:43:53;;;;;;;3.33;3.03;;;1.30;99.90;;;;;;484941;245;27459;-72
2021/01/27 07:45:54;;;;;;;4.47;3.20;;;1.30;99.90;;;;;;484938;245;27545;-70
2021/01/27 07:47:55;;;;;;;4.10;2.85;;;1.40;99.90;;;;;;484958;245;27443;-70
2021/01/27 07:49:57;;;;;;;4.50;3.40;;;1.40;99.90;;;;;;484950;245;27395;-69
2021/01/27 07:51:58;;;;;;;3.65;2.92;;;1.40;99.90;;;;;;484924;245;27431;-70
2021/01/27 07:53:59;;;;;;;3.50;3.20;;;1.30;99.90;;;;;;484953;245;27538;-71
2021/01/27 07:56:00;;;;;;;3.22;2.95;;;1.40;99.90;;;;;;484909;245;27455;-70
2021/01/27 07:58:02;;;;;;;4.20;3.00;;;1.40;99.90;;;;;;484886;245;27549;-70
2021/01/27 08:00:03;;;;;;;3.75;2.55;;;1.30;99.90;;;;;;484811;245;27522;-71
2021/01/27 08:02:04;;;;;;;3.70;2.80;;;1.40;99.90;;;;;;484814;245;27442;-69
2021/01/27 08:04:05;;;;;;;4.15;3.10;;;1.40;99.90;;;;;;484801;245;27919;-70
2021/01/27 08:06:07;;;;;;;3.40;2.85;;;1.40;99.90;;;;;;484778;245;27868;-69
2021/01/27 08:08:08;;;;;;;2.72;2.40;;;1.30;99.90;;;;;;484768;245;27905;-70
2021/01/27 08:10:09;;;;;;;2.53;2.30;;;1.40;99.90;;;;;;484710;245;27947;-71
2021/01/27 08:12:10;;;;;;;2.95;2.28;;;1.40;99.90;;;;;;484774;245;27443;-70
2021/01/27 08:14:15;;;;;;;2.15;2.00;;;1.40;99.90;;;;;;484796;245;27568;-72
2021/01/27 08:16:13;;;;;;;2.37;2.15;;;1.40;99.90;;;;;;484504;245;27587;-69
2021/01/27 08:18:14;;;;;;;2.50;2.30;;;1.30;99.90;;;;;;484810;245;27462;-69
2021/01/27 08:20:15;;;;;;;3.83;2.35;;;1.30;99.90;;;;;;484827;245;27640;-70
2021/01/27 08:22:17;;;;;;;2.97;2.35;;;1.30;99.90;;;;;;484879;245;27426;-69
2021/01/27 08:24:18;;;;;;;3.33;2.47;;;1.40;99.90;;;;;;484878;245;27641;-69
2021/01/27 08:26:19;;;;;;;2.47;2.28;;;1.40;99.90;;;;;;484792;245;27505;-69
2021/01/27 08:28:20;;;;;;;2.08;1.98;;;1.50;99.90;;;;;;484755;245;27792;-70
2021/01/27 08:30:22;;;;;;;2.37;2.17;;;1.50;99.90;;;;;;484710;245;27543;-70
2021/01/27 08:32:23;;;;;;;2.53;2.33;;;1.50;99.90;;;;;;484759;245;27970;-69
2021/01/27 08:34:24;;;;;;;1.98;1.87;;;1.50;99.90;;;;;;484764;245;28018;-71
2021/01/27 08:36:25;;;;;;;2.28;1.87;;;1.60;99.90;;;;;;484706;245;28189;-71
2021/01/27 08:38:27;;;;;;;2.55;1.80;;;1.50;99.90;;;;;;484780;245;29114;-69
2021/01/27 08:40:28;;;;;;;1.70;1.60;;;1.60;99.90;;;;;;484693;245;27538;-70
2021/01/27 08:42:29;;;;;;;1.83;1.73;;;1.60;99.90;;;;;;484754;245;27529;-70
2021/01/27 08:44:30;;;;;;;1.60;1.50;;;1.50;99.90;;;;;;484814;245;27516;-69
2021/01/27 08:46:32;;;;;;;1.73;1.62;;;1.60;99.90;;;;;;484780;245;27446;-70
2021/01/27 08:48:33;;;;;;;2.17;1.98;;;1.60;99.90;;;;;;484782;245;27544;-71
2021/01/27 08:50:34;;;;;;;1.80;1.70;;;1.60;99.90;;;;;;484704;245;27530;-70
2021/01/27 08:52:35;;;;;;;1.80;1.70;;;1.70;99.90;;;;;;484785;245;27450;-70
2021/01/27 08:54:37;;;;;;;1.87;1.77;;;1.80;99.90;;;;;;484758;245;27414;-70
2021/01/27 08:56:38;;;;;;;1.95;1.85;;;1.80;99.90;;;;;;484753;245;27631;-70
2021/01/27 08:58:39;;;;;;;1.70;1.60;;;1.90;99.90;;;;;;484740;245;27458;-70
2021/01/27 09:00:40;;;;;;;1.83;1.73;;;1.90;99.90;;;;;;484669;245;28018;-69
2021/01/27 09:02:42;;;;;;;2.20;2.00;;;1.90;99.90;;;;;;484758;245;28016;-70
2021/01/27 09:04:43;;;;;;;1.90;1.80;;;1.90;99.90;;;;;;484757;245;29085;-69
2021/01/27 09:06:44;;;;;;;1.73;1.62;;;2.00;99.90;;;;;;484763;245;29101;-70
2021/01/27 09:08:45;;;;;;;2.10;2.00;;;2.00;99.90;;;;;;484836;245;27523;-71
2021/01/27 09:10:50;;;;;;;1.98;1.87;;;2.00;99.90;;;;;;484799;245;27466;-69
2021/01/27 09:12:51;;;;;;;1.90;1.50;;;2.00;99.90;;;;;;484767;245;28051;-70
2021/01/27 09:14:52;;;;;;;1.58;1.48;;;1.90;99.90;;;;;;484777;245;27907;-69
2021/01/27 09:16:53;;;;;;;1.60;1.50;;;1.90;99.90;;;;;;484761;245;28022;-70
2021/01/27 09:18:55;;;;;;;1.70;1.60;;;1.80;99.90;;;;;;484736;245;27526;-69
2021/01/27 09:20:56;;;;;;;2.15;1.92;;;1.80;99.90;;;;;;484713;245;27517;-71
2021/01/27 09:22:57;;;;;;;2.30;2.20;;;1.90;99.90;;;;;;484758;245;27474;-69
2021/01/27 09:25:00;;;;;;;1.90;1.80;;;1.90;99.90;;;;;;484766;245;27573;-69
2021/01/27 09:27:00;;;;;;;1.60;1.50;;;1.90;99.90;;;;;;484671;245;27419;-69
2021/01/27 09:29:01;;;;;;;1.83;1.73;;;1.90;99.90;;;;;;484754;245;27625;-70
2021/01/27 09:31:02;;;;;;;1.90;1.75;;;1.90;99.90;;;;;;484700;245;27470;-70
2021/01/27 09:33:03;;;;;;;1.70;1.60;;;2.00;99.90;;;;;;484723;245;27415;-70
2021/01/27 09:35:05;;;;;;;1.30;1.30;;;2.00;99.90;;;;;;486903;238;27561;-70
2021/01/27 09:37:07;;;;;;;1.70;1.60;;;1.90;99.90;;;;;;487989;243;27468;-70
2021/01/27 09:39:07;;;;;;;1.92;1.83;;;2.00;99.90;;;;;;487976;243;27919;-70
2021/01/27 09:41:08;;;;;;;1.92;1.80;;;1.90;99.90;;;;;;487853;243;28047;-71
2021/01/27 09:43:10;;;;;;;1.40;1.40;;;2.00;99.90;;;;;;487784;243;28096;-70
2021/01/27 09:45:11;;;;;;;2.20;1.55;;;1.90;99.90;;;;;;487798;243;28017;-70
2021/01/27 09:47:12;;;;;;;2.25;2.05;;;2.00;99.90;;;;;;487802;243;27495;-69
2021/01/27 09:49:13;;;;;;;1.73;1.60;;;2.10;99.90;;;;;;487823;243;27533;-69
2021/01/27 09:51:15;;;;;;;2.05;1.90;;;2.10;99.90;;;;;;487781;243;27545;-72
2021/01/27 09:53:16;;;;;;;1.50;1.40;;;2.10;99.90;;;;;;487843;243;27563;-69
2021/01/27 09:55:17;;;;;;;1.58;1.48;;;2.20;99.90;;;;;;492901;238;27500;-71
2021/01/27 09:57:18;;;;;;;1.33;1.33;;;2.20;99.90;;;;;;497872;238;27762;-70
2021/01/27 09:59:20;;;;;;;1.45;1.35;;;2.20;99.90;;;;;;497849;237;27512;-70
2021/01/27 10:01:21;;;;;;;2.00;1.90;;;2.30;99.90;;;;;;497784;237;27424;-69
2021/01/27 10:03:22;;;;;;;3.62;3.33;;;2.20;99.90;;;;;;497901;237;27484;-69
2021/01/27 10:05:23;;;;;;;1.42;1.40;;;2.10;99.90;;;;;;497942;237;27492;-70
2021/01/27 10:07:25;;;;;;;1.45;1.35;;;2.10;99.90;;;;;;497913;237;27988;-70
2021/01/27 10:09:27;;;;;;;1.70;1.60;;;2.20;99.90;;;;;;497969;237;28080;-70
2021/01/27 10:11:28;;;;;;;4.20;1.30;;;2.10;99.90;;;;;;498261;237;27948;-69
2021/01/27 10:13:33;;;;;;;1.50;1.40;;;2.10;99.90;;;;;;498351;237;29077;-70
2021/01/27 10:15:31;;;;;;;1.65;1.55;;;2.00;99.90;;;;;;498207;238;27462;-71
2021/01/27 10:17:32;;;;;;;1.50;1.27;;;2.10;99.90;;;;;;498364;237;27449;-69
2021/01/27 10:19:33;;;;;;;1.80;1.70;;;2.10;99.90;;;;;;498360;237;27455;-70
2021/01/27 10:21:34;;;;;;;1.90;1.80;;;2.20;99.90;;;;;;498328;237;27464;-69
2021/01/27 10:23:36;;;;;;;1.73;1.62;;;2.10;99.90;;;;;;498323;237;27551;-70
2021/01/27 10:25:37;;;;;;;2.00;1.90;;;2.10;99.90;;;;;;498351;237;27519;-69
2021/01/27 10:27:38;;;;;;;1.85;1.75;;;2.10;99.90;;;;;;498345;237;27452;-69
2021/01/27 10:29:39;;;;;;;1.52;1.42;;;2.20;99.90;;;;;;498355;237;27453;-68
2021/01/27 10:31:41;;;;;;;2.08;1.50;;;2.10;99.90;;;;;;498310;237;27363;-70
2021/01/27 10:33:42;;;;;;;1.75;1.65;;;2.10;99.90;;;;;;498361;237;27519;-70
2021/01/27 10:35:43;;;;;;;1.60;1.50;;;1.90;99.90;;;;;;498178;237;27982;-69